Portada
METAR-TAF:

METAR-TAF

Aeroports :

Superior, Wisconsin, Estats Units d'Amèrica

Richard I. Bong Airport

latitud: 46-41-23N, longitud: 092-05-41W, altitud: 205 m

Observació

L'informe es va fer fa 15 hores i 41 minuts, a les 15:15 UTC
Vent 7 kt del Nord
Temperatura -11°C
Humitat 92%
Pressió 1013 hPa
Visibilitat: 2.0 km
Cel cobert a una alçada de 1400 ft
neu

METAR: KSUW 201515Z AUTO 36007KT 1 1/4SM -SN OVC014 M11/M12 A2990 RMK AO2 T11061122

Hora: 00:56 (06:56 UTC)


TAF: manca

Observacions i pronòstics meteorològics de més de 4000 aeroports (METAR i TAF).

Les estacions disponibles són els punts grocs i vermells al mapa.

Posi el ratolí al punt desitjat per veure el nom de l'estació.

Feu clic per veure les observacions i els pronòstics meteorològics.

Per canviar el mapa: feu clic els botons verds amb una creu de color negre per apropar; al botó verd amb un guió per allunyar la imatge; o en les fletxes verdes per a mapes adjacents.


METAR-TAF: